Grand Prairie, TX

5:11 PM CDT on August 29, 2014 (GMT -0500)
Redbird | Change Station
CLOSE
Current Station
Airport
Location: Dallas Redbird,
Elevation: 659 ft
Nearby Weather Stations

Elev 659 ft 32.68 °N, 96.87 °W | Updated 18 minutes ago

Mostly Cloudy
Mostly Cloudy
93 °F
Feels Like 96 °F
N
0
Wind Variable Wind from North

Today
High -- | Low -- °F
--% Chance of Precip.
Yesterday
High -- | Low -- °F
Precip. -- in
7:00 AM 7:56 PM
Waxing Crescent, 17% visible
Pressure 29.83 in
Visibility 10.0 miles
Clouds Mostly Cloudy 5500 ft
Heat Index 96 °F
Dew Point 66 °F
Humidity 41%
Rainfall 0.06 in
Snow Depth Not available.
UV 2 out of 12
Pollen 9.50 out of 12
Ozone Moderate
PM2.5 Good
Flu Activity Not available.
METAR KRBD 292153Z AUTO 00000KT 10SM VCTS BKN055 34/19 A2985 RMK AO2 LTG DSNT SE AND S SLP099 T03390189

More Conditions Fewer Conditions

Pressure 29.83 in
Visibility 10.0 miles
Clouds Mostly Cloudy 5500 ft
Heat Index 96 °F
Dew Point 66 °F
Humidity 41%
Rainfall 0.06 in
Snow Depth Not available.
UV 2 out of 12
Pollen 9.50 out of 12
Ozone Moderate
PM2.5 Good
Flu Activity Not available.
METAR KRBD 292153Z AUTO 00000KT 10SM VCTS BKN055 34/19 A2985 RMK AO2 LTG DSNT SE AND S SLP099 T03390189

More Conditions Fewer Conditions

Nowcast | as of 2:56 PM CDT on August 29, 2014

Scattered thunderstorms extending from Centerville to Hearne are moving little. These storms will occasionally produce heavy rain and frequent lightning. Another area of thunderstorms is moving east along the Interstate 20 corridor near the possum kingdom...Breckenridge and Cisco areas. These storms should approach The Fort Worth area 5 to 6 PM and Dallas 6 to 7 PM. Brief heavy rain and frequent lightning will accompany these storms as well.

×

10-Day Weather Forecast

Almanac

Astronomy

Aug. 29, 2014 Rise Set
Actual Time 7:00 AM CDT 7:56 PM CDT
Civil Twilight 6:35 AM CDT 8:21 PM CDT
Nautical Twilight 6:05 AM CDT 8:51 PM CDT
Astronomical Twilight 5:34 AM CDT 9:22 PM CDT
Moon 10:36 AM CDT 10:10 PM CDT
Length of Visible Light 13h 46m
Length of Day
12h 55m
Tomorrow will be 1m 55s shorter.
Waxing Crescent, 17% of the Moon is Illuminated
Today
Waxing Crescent
Sep 2
First Quarter
Sep 8
Full
Sep 15
Last Quarter
Sep 24
New

Today's Extremes

State Highs State Lows

Community

WunderPhotos

Upload Photos

1,748,356 photos uploaded!

Nearby

Air Quality

  Air Quality AQ Index Pollutant
Yesterday Moderate
OZONE
Yesterday Good
PM2.5
Current Moderate
OZONE
Current Good
PM2.5
Friday Good
OZONE
Friday Good
PM10
Saturday Good
OZONE
Saturday Good
PM10
Sunday Good
OZONE
Sunday Good
PM10
Monday Good
OZONE
Monday Good
PM10
Tuesday Good
OZONE
Tuesday Good
PM10

Snow Depth

Station Depth Elevation
No new snow has been reported.

Earthquake Activity

City Distance Mag. Time & Date
No recent earthquake activity has been reported nearby.
Minimum magnitude displayed is 2.5.

Coastal Water Temperatures

Place Temperature
No Stations Reporting

Nearby Weather Stations